createdAt,value
2017-10-01T00:00:54.867Z,0
2017-10-01T00:02:04.199Z,0
2017-10-01T00:03:13.536Z,0
2017-10-01T00:04:22.866Z,0
2017-10-01T00:05:32.518Z,0
2017-10-01T00:06:41.533Z,0
2017-10-01T00:07:50.542Z,0
2017-10-01T00:08:59.241Z,0
2017-10-01T00:10:08.896Z,0
2017-10-01T00:11:17.593Z,0
2017-10-01T00:12:26.606Z,0
2017-10-01T00:13:35.302Z,0
2017-10-01T00:14:43.999Z,0
2017-10-01T00:15:52.690Z,0
2017-10-01T00:17:01.705Z,0
2017-10-01T00:18:10.719Z,0
2017-10-01T00:19:19.730Z,0
2017-10-01T00:20:28.427Z,0
2017-10-01T00:21:37.758Z,0
2017-10-01T00:22:47.403Z,0
2017-10-01T00:23:56.417Z,0
2017-10-01T00:25:05.430Z,0
2017-10-01T00:26:15.098Z,0
2017-10-01T00:27:23.795Z,0
2017-10-01T00:28:33.129Z,0
2017-10-01T00:29:42.462Z,0
2017-10-01T00:30:51.814Z,0
2017-10-01T00:32:01.477Z,0
2017-10-01T00:33:10.496Z,0
2017-10-01T00:34:20.156Z,0
2017-10-01T00:35:29.162Z,0
2017-10-01T00:36:38.816Z,0
2017-10-01T00:37:47.832Z,0
2017-10-01T00:38:57.173Z,0
2017-10-01T00:40:06.502Z,0
2017-10-01T00:41:16.156Z,0
2017-10-01T00:42:25.489Z,0
2017-10-01T00:43:34.505Z,0
2017-10-01T00:44:43.841Z,0
2017-10-01T00:45:52.858Z,0
2017-10-01T00:47:02.206Z,0
2017-10-01T00:48:11.863Z,0
2017-10-01T00:49:20.559Z,0
2017-10-01T00:50:29.255Z,0
2017-10-01T00:51:39.249Z,0
2017-10-01T00:52:48.271Z,0
2017-10-01T00:53:56.966Z,0
2017-10-01T00:55:05.660Z,0
2017-10-01T00:56:14.997Z,0
2017-10-01T00:57:24.653Z,0
2017-10-01T00:58:33.986Z,0
2017-10-01T00:59:42.681Z,0
2017-10-01T01:00:52.010Z,0
2017-10-01T01:02:01.349Z,0
2017-10-01T01:03:10.364Z,0
2017-10-01T01:04:19.059Z,0
2017-10-01T01:05:27.753Z,0
2017-10-01T01:06:36.447Z,0
2017-10-01T01:07:45.144Z,0
2017-10-01T01:08:54.476Z,0
2017-10-01T01:10:04.127Z,0
2017-10-01T01:11:13.140Z,0
2017-10-01T01:12:21.834Z,0
2017-10-01T01:13:31.172Z,0
2017-10-01T01:14:40.820Z,0
2017-10-01T01:15:50.150Z,0
2017-10-01T01:16:59.803Z,0
2017-10-01T01:18:08.501Z,0
2017-10-01T01:19:17.836Z,0
2017-10-01T01:20:27.496Z,0
2017-10-01T01:21:36.510Z,0
2017-10-01T01:22:45.848Z,0
2017-10-01T01:23:54.865Z,0
2017-10-01T01:25:03.907Z,0
2017-10-01T01:26:13.238Z,0
2017-10-01T01:27:22.571Z,0
2017-10-01T01:28:31.586Z,0
2017-10-01T01:29:40.601Z,0
2017-10-01T01:30:49.620Z,0
2017-10-01T01:31:58.634Z,0
2017-10-01T01:33:07.647Z,0
2017-10-01T01:34:16.342Z,0
2017-10-01T01:35:25.361Z,0
2017-10-01T01:36:34.383Z,0
2017-10-01T01:37:44.356Z,0
2017-10-01T01:38:53.367Z,0
2017-10-01T01:40:02.062Z,0
2017-10-01T01:41:11.079Z,0
2017-10-01T01:42:20.734Z,0
2017-10-01T01:43:30.069Z,0
2017-10-01T01:44:39.085Z,0
2017-10-01T01:45:48.736Z,0
2017-10-01T01:46:58.390Z,0
2017-10-01T01:48:08.357Z,0
2017-10-01T01:49:17.698Z,0
2017-10-01T01:50:26.717Z,0
2017-10-01T01:51:35.415Z,0
2017-10-01T01:52:44.756Z,0
2017-10-01T01:53:53.772Z,0
2017-10-01T01:55:02.792Z,0
2017-10-01T01:56:11.805Z,0
2017-10-01T01:57:20.502Z,0
2017-10-01T01:58:29.199Z,0
2017-10-01T01:59:38.537Z,0
2017-10-01T02:00:47.886Z,0
2017-10-01T02:01:57.219Z,0
2017-10-01T02:03:05.915Z,0
2017-10-01T02:04:14.613Z,0
2017-10-01T02:05:23.626Z,0
2017-10-01T02:06:32.327Z,0
2017-10-01T02:07:41.983Z,0
2017-10-01T02:08:51.315Z,0
2017-10-01T02:10:00.008Z,0
2017-10-01T02:11:09.026Z,0
2017-10-01T02:12:18.679Z,0
2017-10-01T02:13:28.015Z,0
2017-10-01T02:14:37.664Z,0
2017-10-01T02:15:46.680Z,0
2017-10-01T02:16:55.376Z,0
2017-10-01T02:18:04.390Z,0
2017-10-01T02:19:13.721Z,0
2017-10-01T02:20:22.728Z,0
2017-10-01T02:21:31.738Z,0
2017-10-01T02:22:40.431Z,0
2017-10-01T02:23:49.129Z,0
2017-10-01T02:24:57.818Z,0
2017-10-01T02:26:06.514Z,0
2017-10-01T02:27:15.521Z,0
2017-10-01T02:28:24.852Z,0
2017-10-01T02:29:33.548Z,0
2017-10-01T02:30:42.244Z,0
2017-10-01T02:31:50.941Z,0
2017-10-01T02:32:59.953Z,0
2017-10-01T02:34:09.287Z,0
2017-10-01T02:35:18.617Z,0
2017-10-01T02:36:27.314Z,0
2017-10-01T02:37:36.327Z,0
2017-10-01T02:38:45.659Z,0
2017-10-01T02:39:54.355Z,0
2017-10-01T02:41:03.370Z,0
2017-10-01T02:42:12.394Z,0
2017-10-01T02:43:21.408Z,0
2017-10-01T02:44:30.741Z,0
2017-10-01T02:45:39.430Z,0
2017-10-01T02:46:48.447Z,0
2017-10-01T02:47:57.466Z,0
2017-10-01T02:49:06.801Z,0
2017-10-01T02:50:16.137Z,0
2017-10-01T02:51:25.146Z,0
2017-10-01T02:52:34.797Z,0
2017-10-01T02:53:44.129Z,0
2017-10-01T02:54:53.147Z,0
2017-10-01T02:56:02.171Z,0
2017-10-01T02:57:11.185Z,0
2017-10-01T02:58:20.516Z,0
2017-10-01T02:59:29.527Z,0
2017-10-01T03:00:38.221Z,0
2017-10-01T03:01:47.237Z,0
2017-10-01T03:02:56.252Z,0
2017-10-01T03:04:05.588Z,0
2017-10-01T03:05:14.603Z,0
2017-10-01T03:06:23.617Z,0
2017-10-01T03:07:32.971Z,0
2017-10-01T03:08:41.964Z,0
2017-10-01T03:09:50.979Z,0
2017-10-01T03:11:00.315Z,0
2017-10-01T03:12:09.008Z,0
2017-10-01T03:13:18.345Z,0
2017-10-01T03:14:27.680Z,0
2017-10-01T03:15:36.375Z,0
2017-10-01T03:16:45.702Z,0
2017-10-01T03:17:54.715Z,0
2017-10-01T03:19:04.050Z,0
2017-10-01T03:20:13.061Z,0
2017-10-01T03:21:22.080Z,0
2017-10-01T03:22:30.771Z,0
2017-10-01T03:23:40.101Z,0
2017-10-01T03:24:49.757Z,0
2017-10-01T03:25:58.452Z,0
2017-10-01T03:27:08.108Z,0
2017-10-01T03:28:17.125Z,0
2017-10-01T03:29:25.818Z,0
2017-10-01T03:30:34.523Z,0
2017-10-01T03:31:43.860Z,0
2017-10-01T03:32:52.878Z,0
2017-10-01T03:34:02.214Z,0
2017-10-01T03:35:10.911Z,0
2017-10-01T03:36:20.245Z,0
2017-10-01T03:37:29.579Z,0
2017-10-01T03:38:39.232Z,0
2017-10-01T03:39:48.572Z,0
2017-10-01T03:40:57.583Z,0
2017-10-01T03:42:06.925Z,0
2017-10-01T03:43:16.259Z,0
2017-10-01T03:44:25.270Z,0
2017-10-01T03:45:34.284Z,0
2017-10-01T03:46:43.617Z,0
2017-10-01T03:47:53.270Z,0
2017-10-01T03:49:02.603Z,0
2017-10-01T03:50:11.300Z,0
2017-10-01T03:51:19.996Z,0
2017-10-01T03:52:29.966Z,0
2017-10-01T03:53:38.666Z,0
2017-10-01T03:54:47.681Z,0
2017-10-01T03:55:57.013Z,0
2017-10-01T03:57:06.345Z,0
2017-10-01T03:58:15.365Z,0
2017-10-01T03:59:24.061Z,0
2017-10-01T04:00:33.397Z,0
2017-10-01T04:01:42.729Z,0
2017-10-01T04:02:51.747Z,0
2017-10-01T04:04:01.079Z,0
2017-10-01T04:05:09.771Z,0
2017-10-01T04:06:18.791Z,0
2017-10-01T04:07:27.490Z,0
2017-10-01T04:08:36.505Z,0
2017-10-01T04:09:45.202Z,0
2017-10-01T04:10:54.215Z,0
2017-10-01T04:12:03.227Z,0
2017-10-01T04:13:12.238Z,0
2017-10-01T04:14:20.933Z,0
2017-10-01T04:15:30.272Z,0
2017-10-01T04:16:39.298Z,0
2017-10-01T04:17:48.319Z,0
2017-10-01T04:18:57.653Z,0
2017-10-01T04:20:06.660Z,0
2017-10-01T04:21:15.356Z,0
2017-10-01T04:22:24.372Z,0
2017-10-01T04:23:33.383Z,0
2017-10-01T04:24:42.736Z,0
2017-10-01T04:25:52.065Z,0
2017-10-01T04:27:01.396Z,0
2017-10-01T04:28:10.093Z,0
2017-10-01T04:29:18.790Z,0
2017-10-01T04:30:28.757Z,0
2017-10-01T04:31:37.771Z,0
2017-10-01T04:32:46.781Z,0
2017-10-01T04:33:55.795Z,0
2017-10-01T04:35:04.808Z,0
2017-10-01T04:36:14.143Z,0
2017-10-01T04:37:23.156Z,0
2017-10-01T04:38:32.173Z,0
2017-10-01T04:39:40.870Z,0
2017-10-01T04:40:50.524Z,0
2017-10-01T04:41:59.856Z,0
2017-10-01T04:43:08.551Z,0
2017-10-01T04:44:18.205Z,0
2017-10-01T04:45:27.543Z,0
2017-10-01T04:46:37.190Z,0
2017-10-01T04:47:46.205Z,0
2017-10-01T04:48:55.856Z,0
2017-10-01T04:50:05.518Z,0
2017-10-01T04:51:15.163Z,0
2017-10-01T04:52:24.175Z,0
2017-10-01T04:53:33.505Z,0
2017-10-01T04:54:42.202Z,0
2017-10-01T04:55:51.537Z,0
2017-10-01T04:57:00.554Z,0
2017-10-01T04:58:09.245Z,0
2017-10-01T04:59:18.582Z,0
2017-10-01T05:00:27.924Z,0
2017-10-01T05:01:36.620Z,0
2017-10-01T05:02:45.316Z,0
2017-10-01T05:03:54.331Z,0
2017-10-01T05:05:03.350Z,0
2017-10-01T05:06:12.366Z,0
2017-10-01T05:07:21.058Z,0
2017-10-01T05:08:30.711Z,0
2017-10-01T05:09:39.725Z,0
2017-10-01T05:10:48.734Z,0
2017-10-01T05:11:57.428Z,0
2017-10-01T05:13:06.445Z,0
2017-10-01T05:14:15.788Z,0
2017-10-01T05:15:24.485Z,4
2017-10-01T05:16:33.499Z,4
2017-10-01T05:17:43.152Z,0
2017-10-01T05:18:52.164Z,4
2017-10-01T05:20:01.175Z,4
2017-10-01T05:21:09.874Z,4
2017-10-01T05:22:18.893Z,4
2017-10-01T05:23:27.588Z,8
2017-10-01T05:24:37.246Z,8
2017-10-01T05:25:46.580Z,8
2017-10-01T05:26:55.596Z,12
2017-10-01T05:28:04.613Z,12
2017-10-01T05:29:13.311Z,12
2017-10-01T05:30:22.331Z,12
2017-10-01T05:31:31.664Z,16
2017-10-01T05:32:40.679Z,16
2017-10-01T05:33:49.703Z,20
2017-10-01T05:34:59.361Z,24
2017-10-01T05:36:08.377Z,24
2017-10-01T05:37:18.380Z,28
2017-10-01T05:38:28.028Z,36
2017-10-01T05:39:37.044Z,36
2017-10-01T05:40:46.377Z,40
2017-10-01T05:41:55.070Z,44
2017-10-01T05:43:04.402Z,48
2017-10-01T05:44:13.418Z,48
2017-10-01T05:45:22.752Z,52
2017-10-01T05:46:32.082Z,56
2017-10-01T05:47:41.412Z,60
2017-10-01T05:48:50.104Z,64
2017-10-01T05:49:58.801Z,68
2017-10-01T05:51:07.818Z,68
2017-10-01T05:52:16.833Z,76
2017-10-01T05:53:25.845Z,84
2017-10-01T05:54:34.857Z,92
2017-10-01T05:55:44.512Z,96
2017-10-01T05:56:53.844Z,104
2017-10-01T05:58:02.537Z,120
2017-10-01T05:59:11.868Z,112
2017-10-01T06:00:20.876Z,112
2017-10-01T06:01:29.886Z,112
2017-10-01T06:02:38.901Z,120
2017-10-01T06:03:48.560Z,132
2017-10-01T06:04:57.588Z,144
2017-10-01T06:06:06.918Z,144
2017-10-01T06:07:15.613Z,156
2017-10-01T06:08:24.306Z,176
2017-10-01T06:09:32.998Z,192
2017-10-01T06:10:42.970Z,184
2017-10-01T06:11:52.616Z,176
2017-10-01T06:13:01.633Z,216
2017-10-01T06:14:10.647Z,204
2017-10-01T06:15:19.975Z,212
2017-10-01T06:16:28.994Z,240
2017-10-01T06:17:38.009Z,220
2017-10-01T06:18:47.344Z,268
2017-10-01T06:19:56.045Z,252
2017-10-01T06:21:05.060Z,220
2017-10-01T06:22:14.393Z,260
2017-10-01T06:23:23.086Z,248
2017-10-01T06:24:31.778Z,248
2017-10-01T06:25:40.794Z,260
2017-10-01T06:26:49.808Z,264
2017-10-01T06:27:58.499Z,260
2017-10-01T06:29:07.833Z,280
2017-10-01T06:30:16.844Z,268
2017-10-01T06:31:25.545Z,308
2017-10-01T06:32:34.245Z,344
2017-10-01T06:33:43.262Z,340
2017-10-01T06:34:53.241Z,428
2017-10-01T06:36:01.938Z,436
2017-10-01T06:37:10.952Z,564
2017-10-01T06:38:20.933Z,480
2017-10-01T06:39:30.268Z,516
2017-10-01T06:40:38.969Z,488
2017-10-01T06:41:47.988Z,432
2017-10-01T06:42:57.001Z,428
2017-10-01T06:44:06.338Z,472
2017-10-01T06:45:15.033Z,532
2017-10-01T06:46:24.368Z,560
2017-10-01T06:47:34.336Z,484
2017-10-01T06:48:43.357Z,576
2017-10-01T06:49:52.385Z,640
2017-10-01T06:51:01.084Z,708
2017-10-01T06:52:10.096Z,516
2017-10-01T06:53:19.436Z,636
2017-10-01T06:54:28.449Z,772
2017-10-01T06:55:37.464Z,916
2017-10-01T06:56:46.795Z,860
2017-10-01T06:57:56.132Z,900
2017-10-01T06:59:04.823Z,856
2017-10-01T07:00:14.155Z,1040
2017-10-01T07:01:23.168Z,1100
2017-10-01T07:02:32.178Z,1032
2017-10-01T07:03:41.837Z,1124
2017-10-01T07:04:50.847Z,1200
2017-10-01T07:05:59.864Z,1280
2017-10-01T07:07:08.885Z,1196
2017-10-01T07:08:18.221Z,1336
2017-10-01T07:09:26.915Z,1388
2017-10-01T07:10:36.245Z,1476
2017-10-01T07:11:45.898Z,1592
2017-10-01T07:12:54.910Z,1656
2017-10-01T07:14:03.934Z,1604
2017-10-01T07:15:13.581Z,1632
2017-10-01T07:16:22.601Z,1756
2017-10-01T07:17:31.620Z,1960
2017-10-01T07:18:40.955Z,2088
2017-10-01T07:19:49.973Z,2308
2017-10-01T07:20:59.304Z,2336
2017-10-01T07:22:07.996Z,2488
2017-10-01T07:23:16.691Z,2680
2017-10-01T07:24:25.386Z,2928
2017-10-01T07:25:35.041Z,3092
2017-10-01T07:26:44.056Z,3248
2017-10-01T07:27:53.385Z,3648
2017-10-01T07:29:02.401Z,3888
2017-10-01T07:30:11.099Z,4048
2017-10-01T07:31:20.436Z,4136
2017-10-01T07:32:30.087Z,4116
2017-10-01T07:33:39.101Z,3892
2017-10-01T07:34:48.113Z,3732
2017-10-01T07:35:56.808Z,3828
2017-10-01T07:37:05.507Z,3824
2017-10-01T07:38:14.845Z,4012
2017-10-01T07:39:24.505Z,4412
2017-10-01T07:40:33.843Z,4572
2017-10-01T07:41:43.181Z,4884
2017-10-01T07:42:51.884Z,5288
2017-10-01T07:44:00.902Z,4804
2017-10-01T07:45:10.870Z,5188
2017-10-01T07:46:19.568Z,3572
2017-10-01T07:47:29.540Z,4204
2017-10-01T07:48:38.237Z,5400
2017-10-01T07:49:47.580Z,2836
2017-10-01T07:50:56.597Z,4172
2017-10-01T07:52:05.934Z,3508
2017-10-01T07:53:15.266Z,2324
2017-10-01T07:54:24.923Z,4692
2017-10-01T07:55:34.578Z,4660
2017-10-01T07:56:43.595Z,4624
2017-10-01T07:57:52.934Z,3268
2017-10-01T07:59:02.271Z,1988
2017-10-01T08:00:10.967Z,1880
2017-10-01T08:01:19.667Z,1792
2017-10-01T08:02:28.681Z,2252
2017-10-01T08:03:37.697Z,2012
2017-10-01T08:04:46.713Z,1852
2017-10-01T08:05:55.416Z,1864
2017-10-01T08:07:04.440Z,2308
2017-10-01T08:08:13.459Z,1876
2017-10-01T08:09:23.119Z,1828
2017-10-01T08:10:31.821Z,1960
2017-10-01T08:11:40.837Z,1856
2017-10-01T08:12:49.543Z,2356
2017-10-01T08:13:58.242Z,3144
2017-10-01T08:15:07.575Z,2600
2017-10-01T08:16:16.589Z,2292
2017-10-01T08:17:25.926Z,2452
2017-10-01T08:18:34.944Z,2496
2017-10-01T08:19:44.603Z,3540
2017-10-01T08:20:53.623Z,3500
2017-10-01T08:22:02.647Z,3316
2017-10-01T08:23:11.660Z,3024
2017-10-01T08:24:20.674Z,2700
2017-10-01T08:25:30.013Z,2548
2017-10-01T08:26:39.028Z,2456
2017-10-01T08:27:48.688Z,2380
2017-10-01T08:28:57.703Z,2316
2017-10-01T08:30:06.719Z,2292
2017-10-01T08:31:16.049Z,2280
2017-10-01T08:32:25.058Z,2248
2017-10-01T08:33:33.755Z,2236
2017-10-01T08:34:42.770Z,2224
2017-10-01T08:35:51.793Z,2208
2017-10-01T08:37:00.803Z,2160
2017-10-01T08:38:10.133Z,2152
2017-10-01T08:39:19.476Z,2140
2017-10-01T08:40:28.494Z,2120
2017-10-01T08:41:37.509Z,2116
2017-10-01T08:42:46.528Z,2100
2017-10-01T08:43:55.223Z,2116
2017-10-01T08:45:04.880Z,2104
2017-10-01T08:46:14.214Z,2104
2017-10-01T08:47:24.188Z,2116
2017-10-01T08:48:33.201Z,2112
2017-10-01T08:49:42.221Z,2116
2017-10-01T08:50:50.917Z,2104
2017-10-01T08:51:59.937Z,2092
2017-10-01T08:53:09.274Z,2140
2017-10-01T08:54:18.293Z,2124
2017-10-01T08:55:26.985Z,2132
2017-10-01T08:56:35.684Z,2160
2017-10-01T08:57:44.702Z,2204
2017-10-01T08:58:54.044Z,2212
2017-10-01T09:00:03.388Z,2272
2017-10-01T09:01:13.038Z,2280
2017-10-01T09:02:22.057Z,2252
2017-10-01T09:03:31.095Z,2300
2017-10-01T09:04:40.435Z,2344
2017-10-01T09:05:49.452Z,2332
2017-10-01T09:06:58.468Z,2328
2017-10-01T09:08:07.814Z,2340
2017-10-01T09:09:17.785Z,2364
2017-10-01T09:10:27.118Z,2368
2017-10-01T09:11:36.134Z,2332
2017-10-01T09:12:45.149Z,2420
2017-10-01T09:13:54.486Z,2600
2017-10-01T09:15:03.506Z,2508
2017-10-01T09:16:12.525Z,2512
2017-10-01T09:17:21.228Z,2580
2017-10-01T09:18:30.882Z,2600
2017-10-01T09:19:39.899Z,2684
2017-10-01T09:20:49.558Z,2864
2017-10-01T09:21:58.252Z,3184
2017-10-01T09:23:06.951Z,3456
2017-10-01T09:24:16.286Z,8728
2017-10-01T09:25:25.301Z,20352
2017-10-01T09:26:34.643Z,24448
2017-10-01T09:27:43.661Z,26336
2017-10-01T09:28:52.359Z,25216
2017-10-01T09:30:01.707Z,25280
2017-10-01T09:31:10.728Z,25312
2017-10-01T09:32:19.746Z,26720
2017-10-01T09:33:28.766Z,27104
2017-10-01T09:34:37.780Z,26016
2017-10-01T09:35:46.487Z,26144
2017-10-01T09:36:55.831Z,26464
2017-10-01T09:38:04.531Z,27584
2017-10-01T09:39:13.239Z,27040
2017-10-01T09:40:22.591Z,25632
2017-10-01T09:41:31.933Z,23040
2017-10-01T09:42:40.952Z,19136
2017-10-01T09:43:50.619Z,17152
2017-10-01T09:45:00.280Z,13744
2017-10-01T09:46:10.266Z,11384
2017-10-01T09:47:19.296Z,9328
2017-10-01T09:48:27.994Z,8700
2017-10-01T09:49:37.016Z,8424
2017-10-01T09:50:46.036Z,8248
2017-10-01T09:51:55.383Z,8396
2017-10-01T09:53:04.407Z,8404
2017-10-01T09:54:13.748Z,8416
2017-10-01T09:55:22.768Z,8288
2017-10-01T09:56:31.790Z,8452
2017-10-01T09:57:40.812Z,8504
2017-10-01T09:58:50.150Z,8604
2017-10-01T09:59:59.176Z,8628
2017-10-01T10:01:08.512Z,8360
2017-10-01T10:02:17.536Z,8540
2017-10-01T10:03:26.235Z,8428
2017-10-01T10:04:34.931Z,8352
2017-10-01T10:05:43.636Z,8264
2017-10-01T10:06:52.654Z,8288
2017-10-01T10:08:01.674Z,8292
2017-10-01T10:09:11.014Z,8200
2017-10-01T10:10:20.035Z,8272
2017-10-01T10:11:29.383Z,8380
2017-10-01T10:12:38.406Z,8344
2017-10-01T10:13:47.431Z,8356
2017-10-01T10:14:56.775Z,8172
2017-10-01T10:16:06.764Z,8124
2017-10-01T10:17:15.467Z,8316
2017-10-01T10:18:24.809Z,8448
2017-10-01T10:19:34.158Z,8428
2017-10-01T10:20:42.863Z,8412
2017-10-01T10:21:51.887Z,8384
2017-10-01T10:23:01.238Z,8400
2017-10-01T10:24:10.255Z,8332
2017-10-01T10:25:18.957Z,8420
2017-10-01T10:26:28.301Z,8576
2017-10-01T10:27:37.003Z,8744
2017-10-01T10:28:45.705Z,8736
2017-10-01T10:29:54.408Z,8796
2017-10-01T10:31:03.752Z,8932
2017-10-01T10:32:12.777Z,8900
2017-10-01T10:33:22.119Z,9156
2017-10-01T10:34:30.822Z,9256
2017-10-01T10:35:39.841Z,9340
2017-10-01T10:36:48.862Z,9344
2017-10-01T10:37:57.878Z,9676
2017-10-01T10:39:07.548Z,9504
2017-10-01T10:40:16.566Z,8200
2017-10-01T10:41:25.592Z,8948
2017-10-01T10:42:34.298Z,9080
2017-10-01T10:43:43.643Z,9380
2017-10-01T10:44:52.670Z,9516
2017-10-01T10:46:01.687Z,9172
2017-10-01T10:47:10.390Z,9156
2017-10-01T10:48:19.419Z,9784
2017-10-01T10:49:29.081Z,9400
2017-10-01T10:50:38.103Z,9376
2017-10-01T10:51:47.128Z,6620
2017-10-01T10:52:56.472Z,9896
2017-10-01T10:54:05.176Z,9796
2017-10-01T10:55:13.883Z,9752
2017-10-01T10:56:23.228Z,9508
2017-10-01T10:57:32.246Z,9720
2017-10-01T10:58:40.949Z,9780
2017-10-01T10:59:49.651Z,9772
2017-10-01T11:00:58.997Z,9932
2017-10-01T11:02:08.026Z,9664
2017-10-01T11:03:17.366Z,9692
2017-10-01T11:04:26.388Z,9864
2017-10-01T11:05:35.413Z,8860
2017-10-01T11:06:44.758Z,9056
2017-10-01T11:07:53.464Z,10228
2017-10-01T11:09:02.166Z,9564
2017-10-01T11:10:10.867Z,8224
2017-10-01T11:11:19.891Z,7608
2017-10-01T11:12:29.233Z,7748
2017-10-01T11:13:38.592Z,7720
2017-10-01T11:14:47.934Z,9280
2017-10-01T11:15:57.275Z,9240
2017-10-01T11:17:06.619Z,9832
2017-10-01T11:18:15.641Z,8476
2017-10-01T11:19:24.659Z,10476
2017-10-01T11:20:33.997Z,8908
2017-10-01T11:21:42.705Z,10352
2017-10-01T11:22:51.413Z,10012
2017-10-01T11:24:00.432Z,10252
2017-10-01T11:25:09.776Z,10556
2017-10-01T11:26:18.806Z,10244
2017-10-01T11:27:27.835Z,8620
2017-10-01T11:28:36.857Z,8600
2017-10-01T11:29:46.524Z,8108
2017-10-01T11:30:55.229Z,7284
2017-10-01T11:32:04.568Z,7340
2017-10-01T11:33:13.589Z,6976
2017-10-01T11:34:22.933Z,6940
2017-10-01T11:35:31.954Z,6128
2017-10-01T11:36:40.981Z,4784
2017-10-01T11:37:50.003Z,4900
2017-10-01T11:38:59.030Z,6228
2017-10-01T11:40:08.378Z,6980
2017-10-01T11:41:17.397Z,6316
2017-10-01T11:42:26.104Z,4816
2017-10-01T11:43:35.131Z,5068
2017-10-01T11:44:44.792Z,5180
2017-10-01T11:45:54.138Z,3740
2017-10-01T11:47:03.808Z,3204
2017-10-01T11:48:12.833Z,2664
2017-10-01T11:49:21.861Z,2416
2017-10-01T11:50:30.886Z,2572
2017-10-01T11:51:40.227Z,1876
2017-10-01T11:52:48.931Z,2564
2017-10-01T11:53:58.596Z,1968
2017-10-01T11:55:07.943Z,2112
2017-10-01T11:56:16.977Z,2152
2017-10-01T11:57:26.639Z,1784
2017-10-01T11:58:35.339Z,1636
2017-10-01T11:59:44.038Z,1456
2017-10-01T12:00:53.055Z,2068
2017-10-01T12:02:01.756Z,1952
2017-10-01T12:03:10.772Z,2260
2017-10-01T12:04:20.108Z,2036
2017-10-01T12:05:29.767Z,2128
2017-10-01T12:06:39.108Z,1996
2017-10-01T12:07:47.811Z,1716
2017-10-01T12:08:57.468Z,1992
2017-10-01T12:10:06.491Z,1976
2017-10-01T12:11:15.510Z,1872
2017-10-01T12:12:24.854Z,1640
2017-10-01T12:13:34.213Z,1524
2017-10-01T12:14:43.281Z,1564
2017-10-01T12:15:51.983Z,1548
2017-10-01T12:17:01.000Z,1508
2017-10-01T12:18:10.036Z,1488
2017-10-01T12:19:19.055Z,1196
2017-10-01T12:20:28.392Z,1400
2017-10-01T12:21:37.731Z,1352
2017-10-01T12:22:47.075Z,1256
2017-10-01T12:23:55.777Z,1312
2017-10-01T12:25:04.476Z,1324
2017-10-01T12:26:14.131Z,1368
2017-10-01T12:27:23.149Z,1204
2017-10-01T12:28:32.485Z,1328
2017-10-01T12:29:41.185Z,1264
2017-10-01T12:30:50.206Z,1096
2017-10-01T12:31:58.906Z,1152
2017-10-01T12:33:07.927Z,1216
2017-10-01T12:34:17.264Z,1252
2017-10-01T12:35:26.629Z,1100
2017-10-01T12:36:35.325Z,1072
2017-10-01T12:37:44.342Z,1016
2017-10-01T12:38:53.359Z,1080
2017-10-01T12:40:02.700Z,1164
2017-10-01T12:41:11.392Z,1332
2017-10-01T12:42:20.089Z,1296
2017-10-01T12:43:29.424Z,1056
2017-10-01T12:44:38.450Z,1056
2017-10-01T12:45:47.467Z,1060
2017-10-01T12:46:56.809Z,1100
2017-10-01T12:48:05.827Z,488
2017-10-01T12:49:14.843Z,540
2017-10-01T12:50:24.181Z,1048
2017-10-01T12:51:33.202Z,1068
2017-10-01T12:52:42.220Z,1120
2017-10-01T12:53:50.929Z,1028
2017-10-01T12:55:00.289Z,872
2017-10-01T12:56:09.629Z,976
2017-10-01T12:57:18.329Z,980
2017-10-01T12:58:27.347Z,1356
2017-10-01T12:59:36.364Z,1092
2017-10-01T13:00:45.704Z,1044
2017-10-01T13:01:55.040Z,1040
2017-10-01T13:03:03.740Z,1040
2017-10-01T13:04:12.759Z,1016
2017-10-01T13:05:21.773Z,880
2017-10-01T13:06:30.469Z,564
2017-10-01T13:07:39.166Z,700
2017-10-01T13:08:48.189Z,780
2017-10-01T13:09:57.213Z,572
2017-10-01T13:11:06.230Z,632
2017-10-01T13:12:14.925Z,748
2017-10-01T13:13:23.636Z,836
2017-10-01T13:14:32.655Z,884
2017-10-01T13:15:41.673Z,1000
2017-10-01T13:16:50.694Z,996
2017-10-01T13:17:59.393Z,1044
2017-10-01T13:19:08.415Z,1128
2017-10-01T13:20:18.388Z,1260
2017-10-01T13:21:28.046Z,1292
2017-10-01T13:22:37.394Z,1492
2017-10-01T13:23:46.092Z,1192
2017-10-01T13:24:54.789Z,1128
2017-10-01T13:26:04.132Z,1072
2017-10-01T13:27:13.467Z,940
2017-10-01T13:28:22.797Z,740
2017-10-01T13:29:31.812Z,744
2017-10-01T13:30:40.511Z,816
2017-10-01T13:31:49.847Z,752
2017-10-01T13:32:59.184Z,964
2017-10-01T13:34:08.534Z,964
2017-10-01T13:35:18.184Z,1036
2017-10-01T13:36:27.521Z,1036
2017-10-01T13:37:36.542Z,836
2017-10-01T13:38:45.878Z,864
2017-10-01T13:39:54.894Z,912
2017-10-01T13:41:04.227Z,824
2017-10-01T13:42:13.251Z,808
2017-10-01T13:43:22.593Z,864
2017-10-01T13:44:31.611Z,732
2017-10-01T13:45:40.629Z,588
2017-10-01T13:46:49.649Z,788
2017-10-01T13:47:58.346Z,720
2017-10-01T13:49:07.685Z,852
2017-10-01T13:50:16.700Z,828
2017-10-01T13:51:26.038Z,684
2017-10-01T13:52:35.061Z,668
2017-10-01T13:53:44.080Z,784
2017-10-01T13:54:54.054Z,816
2017-10-01T13:56:02.756Z,816
2017-10-01T13:57:11.452Z,672
2017-10-01T13:58:20.472Z,628
2017-10-01T13:59:29.499Z,584
2017-10-01T14:00:39.174Z,788
2017-10-01T14:01:48.830Z,820
2017-10-01T14:02:57.849Z,864
2017-10-01T14:04:07.190Z,896
2017-10-01T14:05:16.521Z,888
2017-10-01T14:06:25.220Z,860
2017-10-01T14:07:34.231Z,796
2017-10-01T14:08:43.250Z,520
2017-10-01T14:09:51.949Z,476
2017-10-01T14:11:00.653Z,504
2017-10-01T14:12:09.677Z,488
2017-10-01T14:13:18.692Z,488
2017-10-01T14:14:28.355Z,556
2017-10-01T14:15:37.695Z,560
2017-10-01T14:16:46.394Z,536
2017-10-01T14:17:55.728Z,384
2017-10-01T14:19:05.065Z,456
2017-10-01T14:20:14.399Z,472
2017-10-01T14:21:23.419Z,448
2017-10-01T14:22:32.441Z,488
2017-10-01T14:23:42.094Z,352
2017-10-01T14:24:50.790Z,380
2017-10-01T14:25:59.485Z,444
2017-10-01T14:27:08.506Z,504
2017-10-01T14:28:17.527Z,604
2017-10-01T14:29:26.547Z,556
2017-10-01T14:30:35.246Z,552
2017-10-01T14:31:44.910Z,532
2017-10-01T14:32:53.610Z,480
2017-10-01T14:34:02.629Z,524
2017-10-01T14:35:11.962Z,564
2017-10-01T14:36:20.977Z,564
2017-10-01T14:37:29.995Z,560
2017-10-01T14:38:39.012Z,556
2017-10-01T14:39:47.708Z,544
2017-10-01T14:40:57.049Z,540
2017-10-01T14:42:06.070Z,480
2017-10-01T14:43:14.768Z,448
2017-10-01T14:44:23.464Z,424
2017-10-01T14:45:32.802Z,396
2017-10-01T14:46:41.496Z,368
2017-10-01T14:47:50.830Z,368
2017-10-01T14:49:00.164Z,376
2017-10-01T14:50:09.178Z,384
2017-10-01T14:51:18.197Z,456
2017-10-01T14:52:27.218Z,476
2017-10-01T14:53:36.549Z,528
2017-10-01T14:54:45.569Z,524
2017-10-01T14:55:54.588Z,516
2017-10-01T14:57:03.604Z,480
2017-10-01T14:58:12.621Z,428
2017-10-01T14:59:21.635Z,396
2017-10-01T15:00:30.970Z,396
2017-10-01T15:01:39.991Z,388
2017-10-01T15:02:48.699Z,388
2017-10-01T15:03:57.720Z,364
2017-10-01T15:05:06.734Z,352
2017-10-01T15:06:15.748Z,368
2017-10-01T15:07:24.762Z,364
2017-10-01T15:08:34.101Z,332
2017-10-01T15:09:43.438Z,344
2017-10-01T15:10:52.135Z,352
2017-10-01T15:12:01.151Z,344
2017-10-01T15:13:10.170Z,336
2017-10-01T15:14:18.864Z,328
2017-10-01T15:15:27.880Z,312
2017-10-01T15:16:37.529Z,316
2017-10-01T15:17:47.180Z,340
2017-10-01T15:18:55.873Z,364
2017-10-01T15:20:04.891Z,372
2017-10-01T15:21:13.913Z,368
2017-10-01T15:22:22.609Z,388
2017-10-01T15:23:31.307Z,396
2017-10-01T15:24:40.645Z,388
2017-10-01T15:25:49.659Z,352
2017-10-01T15:26:58.680Z,340
2017-10-01T15:28:07.380Z,348
2017-10-01T15:29:16.725Z,356
2017-10-01T15:30:25.425Z,356
2017-10-01T15:31:34.447Z,360
2017-10-01T15:32:43.467Z,344
2017-10-01T15:33:52.805Z,332
2017-10-01T15:35:01.503Z,332
2017-10-01T15:36:10.525Z,324
2017-10-01T15:37:19.229Z,324
2017-10-01T15:38:28.250Z,320
2017-10-01T15:39:37.281Z,320
2017-10-01T15:40:46.297Z,312
2017-10-01T15:41:55.638Z,292
2017-10-01T15:43:04.650Z,280
2017-10-01T15:44:14.306Z,264
2017-10-01T15:45:23.321Z,240
2017-10-01T15:46:32.338Z,216
2017-10-01T15:47:41.679Z,188
2017-10-01T15:48:50.711Z,176
2017-10-01T15:50:00.044Z,164
2017-10-01T15:51:09.384Z,160
2017-10-01T15:52:18.397Z,184
2017-10-01T15:53:28.051Z,208
2017-10-01T15:54:37.065Z,216
2017-10-01T15:55:46.404Z,216
2017-10-01T15:56:55.423Z,212
2017-10-01T15:58:04.120Z,204
2017-10-01T15:59:12.821Z,200
2017-10-01T16:00:21.834Z,196
2017-10-01T16:01:31.174Z,192